Station History

Weather Underground - logo

Station Historical Data
Daily Summary for July 2, 2017 Units:  English    Metric   Both
« Previous Day
Next Day »
Daily Weekly Monthly Yearly Custom
  High: Low: Average:
Temperature: TemperatureF °F 63.6 °F 81.6 °F
Dew Point: DewpointF °F 52.3 °F 59.8 °F
Humidity: Humidity % 22 % 52 %
Wind Speed: WindSpeedMPH mph 0.0 mph 1.5 mph
Wind Gust: WindSpeedGustMPH mph - -
Wind:- - WSW
Pressure: PressureIn in 29.74 in -
Precipitation: 0.00 in    
Historical Graphs
 
 
Tabular Data for July 2, 2017
Time Temperature Dew Point Pressure Wind Wind Speed Wind Gust Humidity Rainfall Rate (Hourly)
TemperatureF °F DewpointF °F PressureIn in Calm     Humidity % HourlyPrecipIn in
00:03 76.2 °F 59.9 °F 29.74 in Calm     57 % 0.00 in
00:08 75.8 °F 60.4 °F 29.74 in Calm     59 % 0.00 in
00:13 75.3 °F 60.0 °F 29.75 in Calm     59 % 0.00 in
00:18 75.0 °F 59.7 °F 29.75 in NNE 3.5 mph 3.5 mph 59 % 0.00 in
00:23 74.8 °F 60.0 °F 29.75 in Calm     60 % 0.00 in
00:28 74.8 °F 60.4 °F 29.75 in Calm     61 % 0.00 in
00:34 74.5 °F 60.6 °F 29.75 in NNE 1.2 mph   62 % 0.00 in
00:39 74.4 °F 60.1 °F 29.75 in Calm     61 % 0.00 in
00:44 74.2 °F 60.3 °F 29.75 in Calm     62 % 0.00 in
00:49 74.2 °F 59.4 °F 29.75 in NNW 2.3 mph 2.3 mph 60 % 0.00 in
00:54 74.5 °F 59.2 °F 29.75 in NNW 1.2 mph 1.2 mph 59 % 0.00 in
00:59 74.8 °F 59.5 °F 29.75 in North 1.2 mph 1.2 mph 59 % 0.00 in
01:04 74.9 °F 59.1 °F 29.75 in NW 1.2 mph   58 % 0.00 in
01:09 75.1 °F 59.3 °F 29.75 in NW 1.2 mph 1.2 mph 58 % 0.00 in
01:14 75.0 °F 59.2 °F 29.75 in Calm     58 % 0.00 in
01:19 74.8 °F 60.0 °F 29.75 in Calm     60 % 0.00 in
01:24 74.4 °F 59.6 °F 29.74 in Calm     60 % 0.00 in
01:29 73.9 °F 59.6 °F 29.75 in Calm     61 % 0.00 in
01:34 72.9 °F 60.0 °F 29.75 in Calm     64 % 0.00 in
01:39 72.1 °F 60.1 °F 29.74 in Calm     66 % 0.00 in
01:44 71.4 °F 59.4 °F 29.75 in Calm     66 % 0.00 in
01:50 71.0 °F 59.9 °F 29.74 in Calm     68 % 0.00 in
01:56 70.5 °F 60.2 °F 29.74 in Calm     70 % 0.00 in
02:01 70.1 °F 59.9 °F 29.74 in Calm     70 % 0.00 in
02:06 69.7 °F 59.9 °F 29.74 in Calm     71 % 0.00 in
02:11 69.4 °F 60.0 °F 29.75 in Calm     72 % 0.00 in
02:16 68.9 °F 59.9 °F 29.75 in Calm     73 % 0.00 in
02:21 68.3 °F 60.1 °F 29.75 in Calm     75 % 0.00 in
02:26 67.7 °F 60.2 °F 29.75 in Calm     77 % 0.00 in
02:31 67.3 °F 60.2 °F 29.75 in Calm     78 % 0.00 in
02:36 67.0 °F 60.3 °F 29.75 in Calm     79 % 0.00 in
02:41 66.9 °F 60.2 °F 29.75 in Calm     79 % 0.00 in
02:46 66.7 °F 59.6 °F 29.75 in Calm     78 % 0.00 in
02:51 66.7 °F 59.6 °F 29.75 in Calm     78 % 0.00 in
02:56 66.7 °F 59.6 °F 29.75 in NW 2.3 mph 2.3 mph 78 % 0.00 in
03:01 66.5 °F 59.4 °F 29.75 in Calm     78 % 0.00 in
03:06 66.2 °F 59.5 °F 29.75 in Calm     79 % 0.00 in
03:11 66.1 °F 59.4 °F 29.75 in Calm     79 % 0.00 in
03:16 66.0 °F 59.3 °F 29.75 in Calm     79 % 0.00 in
03:21 65.9 °F 59.2 °F 29.75 in WNW 1.2 mph   79 % 0.00 in
03:26 65.8 °F 59.1 °F 29.76 in Calm     79 % 0.00 in
03:31 65.6 °F 59.3 °F 29.76 in Calm     80 % 0.00 in
03:36 65.4 °F 59.1 °F 29.76 in Calm     80 % 0.00 in
03:41 65.3 °F 59.0 °F 29.76 in Calm     80 % 0.00 in
03:46 65.2 °F 58.9 °F 29.76 in WNW 1.2 mph   80 % 0.00 in
03:47 65.2 °F 58.9 °F 29.76 in WNW 1.2 mph 1.2 mph 80 % 0.00 in
03:52 65.1 °F 59.1 °F 29.76 in Calm     81 % 0.00 in
03:57 65.0 °F 59.0 °F 29.76 in WNW 1.2 mph   81 % 0.00 in
04:02 65.0 °F 59.4 °F 29.77 in Calm     82 % 0.00 in
04:07 65.1 °F 59.5 °F 29.77 in NNW 1.2 mph 1.2 mph 82 % 0.00 in
04:12 65.0 °F 59.4 °F 29.77 in NNW 1.2 mph   82 % 0.00 in
04:17 64.9 °F 59.6 °F 29.76 in NNW 1.0 mph 1.0 mph 83 % 0.00 in
04:22 64.9 °F 59.6 °F 29.77 in NNW 1.2 mph 1.2 mph 83 % 0.00 in
04:27 65.0 °F 59.7 °F 29.77 in NNW 1.2 mph   83 % 0.00 in
04:32 65.0 °F 59.7 °F 29.77 in Calm     83 % 0.00 in
04:37 65.1 °F 59.5 °F 29.77 in Calm     82 % 0.00 in
04:42 65.0 °F 59.4 °F 29.77 in NNW 1.2 mph   82 % 0.00 in
04:47 64.9 °F 59.6 °F 29.78 in Calm     83 % 0.00 in
04:52 64.8 °F 59.5 °F 29.78 in NNW 1.2 mph 1.2 mph 83 % 0.00 in
04:57 64.8 °F 59.5 °F 29.78 in NNW 1.2 mph 1.2 mph 83 % 0.00 in
05:02 64.8 °F 59.5 °F 29.78 in NNW 1.2 mph 1.2 mph 83 % 0.00 in
05:07 64.8 °F 59.2 °F 29.79 in NNW 1.2 mph   82 % 0.00 in
05:12 64.8 °F 59.2 °F 29.79 in NNW 1.2 mph   82 % 0.00 in
05:17 64.8 °F 59.2 °F 29.79 in NNW 1.2 mph   82 % 0.00 in
05:22 64.8 °F 59.2 °F 29.79 in NNW 1.2 mph 1.2 mph 82 % 0.00 in
05:27 64.7 °F 59.1 °F 29.80 in Calm     82 % 0.00 in
05:32 64.6 °F 59.0 °F 29.80 in Calm     82 % 0.00 in
05:33 64.6 °F 59.3 °F 29.80 in Calm     83 % 0.00 in
05:38 64.3 °F 59.0 °F 29.80 in NNW 1.2 mph   83 % 0.00 in
05:43 64.1 °F 58.8 °F 29.80 in NNW 1.2 mph   83 % 0.00 in
05:48 64.0 °F 58.7 °F 29.81 in NNW 1.2 mph   83 % 0.00 in
05:53 63.8 °F 58.5 °F 29.81 in Calm     83 % 0.00 in
05:59 63.7 °F 58.4 °F 29.81 in NNW 1.2 mph   83 % 0.00 in
06:04 63.6 °F 58.3 °F 29.81 in NNW 1.2 mph 1.2 mph 83 % 0.00 in
06:09 63.6 °F 58.3 °F 29.81 in Calm     83 % 0.00 in
06:14 63.7 °F 58.4 °F 29.81 in Calm     83 % 0.00 in
06:19 63.8 °F 58.2 °F 29.82 in Calm     82 % 0.00 in
06:24 63.8 °F 58.2 °F 29.82 in NNW 1.2 mph   82 % 0.00 in
06:29 64.0 °F 58.4 °F 29.82 in Calm     82 % 0.00 in
06:34 64.2 °F 58.6 °F 29.82 in NNW 1.2 mph 1.2 mph 82 % 0.00 in
06:39 64.5 °F 58.5 °F 29.82 in Calm     81 % 0.00 in
06:44 65.1 °F 58.8 °F 29.82 in Calm     80 % 0.00 in
06:49 66.3 °F 58.9 °F 29.83 in Calm     77 % 0.00 in
06:54 67.4 °F 58.8 °F 29.82 in SE 1.2 mph 1.2 mph 74 % 0.00 in
06:59 68.3 °F 59.3 °F 29.83 in SE 2.3 mph 2.3 mph 73 % 0.00 in
07:04 68.9 °F 59.9 °F 29.83 in ESE 2.3 mph 2.3 mph 73 % 0.00 in
07:09 69.5 °F 59.7 °F 29.83 in SSE 1.0 mph 1.0 mph 71 % 0.00 in
07:14 70.1 °F 59.0 °F 29.83 in SE 3.0 mph 3.0 mph 68 % 0.00 in
07:19 70.7 °F 59.2 °F 29.83 in ESE 2.3 mph 2.3 mph 67 % 0.00 in
07:24 71.1 °F 59.2 °F 29.83 in ESE 3.5 mph 3.5 mph 66 % 0.00 in
07:29 71.6 °F 59.2 °F 29.83 in SE 2.3 mph 2.3 mph 65 % 0.00 in
07:34 72.0 °F 59.2 °F 29.83 in SSE 3.5 mph 3.5 mph 64 % 0.00 in
07:39 72.6 °F 59.3 °F 29.83 in ESE 2.0 mph 2.0 mph 63 % 0.00 in
07:44 73.3 °F 59.5 °F 29.83 in ESE 2.3 mph 2.3 mph 62 % 0.00 in
07:49 73.7 °F 59.4 °F 29.84 in ESE 3.5 mph 3.5 mph 61 % 0.00 in
07:54 74.2 °F 60.3 °F 29.84 in SSE 2.3 mph 2.3 mph 62 % 0.00 in
07:59 74.9 °F 60.5 °F 29.84 in SSE 2.3 mph 2.3 mph 61 % 0.00 in
08:04 75.0 °F 59.7 °F 29.84 in SE 1.2 mph 1.2 mph 59 % 0.00 in
08:09 75.4 °F 60.5 °F 29.84 in SSE 3.5 mph 3.5 mph 60 % 0.00 in
08:10 75.4 °F 60.1 °F 29.84 in SE 2.3 mph 2.3 mph 59 % 0.00 in
08:15 75.8 °F 60.9 °F 29.84 in ESE 1.2 mph 1.2 mph 60 % 0.00 in
08:20 76.2 °F 60.8 °F 29.84 in SSE 4.6 mph 4.6 mph 59 % 0.00 in
08:25 76.5 °F 61.6 °F 29.85 in ESE 1.2 mph 1.2 mph 60 % 0.00 in
08:30 76.9 °F 61.0 °F 29.85 in East 3.5 mph 3.5 mph 58 % 0.00 in
08:35 77.7 °F 61.7 °F 29.85 in ESE 2.0 mph 2.0 mph 58 % 0.00 in
08:40 78.1 °F 62.1 °F 29.85 in NE 1.2 mph 1.2 mph 58 % 0.00 in
08:45 78.5 °F 62.5 °F 29.85 in ESE 2.3 mph   58 % 0.00 in
08:50 78.6 °F 61.6 °F 29.85 in ESE 3.5 mph 3.5 mph 56 % 0.00 in
08:55 78.9 °F 62.4 °F 29.85 in South 1.2 mph   57 % 0.00 in
09:00 79.3 °F 62.2 °F 29.85 in SE 1.2 mph 1.2 mph 56 % 0.00 in
09:06 79.5 °F 62.4 °F 29.85 in East 2.3 mph 2.3 mph 56 % 0.00 in
09:11 79.9 °F 62.3 °F 29.85 in SSW 2.3 mph 2.3 mph 55 % 0.00 in
09:16 79.8 °F 62.2 °F 29.85 in ESE 2.3 mph 2.3 mph 55 % 0.00 in
09:21 80.1 °F 63.0 °F 29.85 in ESE 3.5 mph 3.5 mph 56 % 0.00 in
09:24 80.3 °F 62.1 °F 29.85 in SE 3.5 mph 3.5 mph 54 % 0.00 in
09:29 80.9 °F 62.7 °F 29.85 in SE 1.2 mph 1.2 mph 54 % 0.00 in
09:34 81.0 °F 62.8 °F 29.85 in ESE 3.5 mph 3.5 mph 54 % 0.00 in
09:39 81.4 °F 62.1 °F 29.85 in NNW 2.3 mph 2.3 mph 52 % 0.00 in
09:44 81.7 °F 61.8 °F 29.85 in ENE 2.3 mph 2.3 mph 51 % 0.00 in
09:45 81.7 °F 62.9 °F 29.86 in East 2.3 mph 2.3 mph 53 % 0.00 in
09:50 81.9 °F 62.0 °F 29.86 in East 1.2 mph 1.2 mph 51 % 0.00 in
09:55 82.4 °F 62.5 °F 29.85 in ENE 1.2 mph 1.2 mph 51 % 0.00 in
10:00 82.7 °F 62.7 °F 29.85 in ESE 2.3 mph 2.3 mph 51 % 0.00 in
10:05 83.1 °F 62.0 °F 29.85 in SSE 1.2 mph 1.2 mph 49 % 0.00 in
10:10 83.3 °F 62.7 °F 29.86 in SE 1.2 mph 1.2 mph 50 % 0.00 in
10:15 84.1 °F 62.3 °F 29.85 in SSE 2.3 mph 2.3 mph 48 % 0.00 in
10:20 85.1 °F 63.8 °F 29.85 in Calm     49 % 0.00 in
10:25 85.6 °F 62.4 °F 29.85 in ESE 2.3 mph 2.3 mph 46 % 0.00 in
10:30 85.5 °F 62.4 °F 29.85 in NNW 2.3 mph 2.3 mph 46 % 0.00 in
10:35 85.2 °F 61.5 °F 29.85 in NNE 1.2 mph 1.2 mph 45 % 0.00 in
10:40 85.5 °F 62.4 °F 29.85 in NNE 1.2 mph   46 % 0.00 in
10:45 86.1 °F 61.0 °F 29.86 in West 1.2 mph 1.2 mph 43 % 0.00 in
10:50 86.0 °F 62.2 °F 29.86 in NNW 1.2 mph 1.2 mph 45 % 0.00 in
10:55 85.9 °F 62.1 °F 29.86 in NW 2.3 mph 2.3 mph 45 % 0.00 in
11:00 86.0 °F 62.2 °F 29.86 in NW 3.5 mph 3.5 mph 45 % 0.00 in
11:05 86.2 °F 62.4 °F 29.86 in WNW 2.0 mph 2.0 mph 45 % 0.00 in
11:10 86.8 °F 59.6 °F 29.85 in SE 2.3 mph 2.3 mph 40 % 0.00 in
11:15 87.3 °F 62.7 °F 29.86 in SSW 2.3 mph 2.3 mph 44 % 0.00 in
11:20 87.8 °F 60.5 °F 29.86 in NW 3.5 mph 3.5 mph 40 % 0.00 in
11:25 87.5 °F 60.2 °F 29.86 in ESE 2.3 mph 2.3 mph 40 % 0.00 in
11:30 87.9 °F 60.6 °F 29.86 in North 2.3 mph 2.3 mph 40 % 0.00 in
11:35 87.9 °F 59.8 °F 29.86 in WNW 2.3 mph 2.3 mph 39 % 0.00 in
11:40 88.1 °F 60.0 °F 29.86 in NW 2.0 mph 2.0 mph 39 % 0.00 in
11:45 88.1 °F 60.0 °F 29.86 in WNW 2.0 mph 2.0 mph 39 % 0.00 in
11:50 88.2 °F 60.8 °F 29.86 in NW 2.3 mph 2.3 mph 40 % 0.00 in
11:55 88.4 °F 60.3 °F 29.86 in NNW 1.2 mph 1.2 mph 39 % 0.00 in
12:00 89.2 °F 58.0 °F 29.86 in NE 1.2 mph 1.2 mph 35 % 0.00 in
12:06 89.8 °F 62.3 °F 29.86 in West 1.0 mph 1.0 mph 40 % 0.00 in
12:11 90.5 °F 61.4 °F 29.86 in SW 1.0 mph 1.0 mph 38 % 0.00 in
12:16 90.7 °F 60.1 °F 29.86 in NW 3.5 mph 3.5 mph 36 % 0.00 in
12:21 90.7 °F 62.3 °F 29.86 in SE 1.2 mph 1.2 mph 39 % 0.00 in
12:26 91.0 °F 61.1 °F 29.86 in NW 3.5 mph 3.5 mph 37 % 0.00 in
12:31 91.2 °F 62.8 °F 29.85 in WNW 1.2 mph 1.2 mph 39 % 0.00 in
12:36 91.7 °F 61.7 °F 29.85 in West 1.2 mph 1.2 mph 37 % 0.00 in
12:41 92.5 °F 62.4 °F 29.85 in East 1.2 mph 1.2 mph 37 % 0.00 in
12:46 93.1 °F 58.0 °F 29.85 in SE 2.3 mph 2.3 mph 31 % 0.00 in
12:51 93.0 °F 58.8 °F 29.85 in ESE 2.3 mph 2.3 mph 32 % 0.00 in
12:56 93.6 °F 61.8 °F 29.85 in SE 3.5 mph 3.5 mph 35 % 0.00 in
13:01 94.0 °F 63.0 °F 29.85 in East 1.0 mph 1.0 mph 36 % 0.00 in
13:11 93.8 °F 58.6 °F 29.84 in NNW 1.2 mph 1.2 mph 31 % 0.00 in
13:16 93.7 °F 57.6 °F 29.84 in NW 3.0 mph 3.0 mph 30 % 0.00 in
13:21 93.5 °F 59.2 °F 29.84 in WSW 1.2 mph   32 % 0.00 in
13:26 94.5 °F 57.3 °F 29.84 in NNE 2.0 mph 2.0 mph 29 % 0.00 in
13:31 95.0 °F 57.8 °F 29.84 in North 1.2 mph 1.2 mph 29 % 0.00 in
13:36 95.3 °F 58.0 °F 29.84 in NW 3.5 mph 3.5 mph 29 % 0.00 in
13:37 95.1 °F 60.6 °F 29.83 in NW 3.0 mph 3.0 mph 32 % 0.00 in
13:42 94.7 °F 56.5 °F 29.83 in East 2.3 mph 2.3 mph 28 % 0.00 in
13:47 95.3 °F 59.9 °F 29.83 in NNE 1.0 mph 1.0 mph 31 % 0.00 in
13:52 95.2 °F 58.9 °F 29.83 in NNW 1.0 mph 1.0 mph 30 % 0.00 in
13:57 95.4 °F 58.1 °F 29.83 in SW 1.2 mph   29 % 0.00 in
14:02 96.4 °F 59.0 °F 29.83 in West 3.5 mph 3.5 mph 29 % 0.00 in
14:07 96.1 °F 56.7 °F 29.83 in WNW 3.5 mph 3.5 mph 27 % 0.00 in
14:12 95.4 °F 57.1 °F 29.83 in NNE 3.5 mph 3.5 mph 28 % 0.00 in
14:17 95.2 °F 57.0 °F 29.83 in WNW 2.3 mph 2.3 mph 28 % 0.00 in
14:22 96.3 °F 59.8 °F 29.82 in NW 3.5 mph 3.5 mph 30 % 0.00 in
14:27 96.1 °F 58.7 °F 29.82 in WSW 2.3 mph 2.3 mph 29 % 0.00 in
14:32 96.2 °F 58.8 °F 29.82 in NW 3.5 mph 3.5 mph 29 % 0.00 in
14:37 96.6 °F 59.1 °F 29.82 in SSE 2.3 mph 2.3 mph 29 % 0.00 in
14:42 96.6 °F 59.1 °F 29.82 in WNW 2.3 mph 2.3 mph 29 % 0.00 in
14:47 96.2 °F 58.8 °F 29.81 in NW 3.5 mph 3.5 mph 29 % 0.00 in
14:52 96.4 °F 59.0 °F 29.81 in NNW 3.5 mph 3.5 mph 29 % 0.00 in
14:57 96.5 °F 60.0 °F 29.81 in WNW 3.0 mph 3.0 mph 30 % 0.00 in
15:02 96.7 °F 61.1 °F 29.81 in NNW 2.3 mph 2.3 mph 31 % 0.00 in
15:04 96.9 °F 61.3 °F 29.81 in SW 1.2 mph 1.2 mph 31 % 0.00 in
15:09 97.3 °F 58.7 °F 29.81 in WNW 2.3 mph 2.3 mph 28 % 0.00 in
15:14 96.7 °F 60.2 °F 29.81 in NNE 4.6 mph 4.6 mph 30 % 0.00 in
15:19 96.3 °F 59.8 °F 29.80 in NW 4.6 mph 4.6 mph 30 % 0.00 in
15:24 96.6 °F 60.1 °F 29.80 in NW 3.5 mph 3.5 mph 30 % 0.00 in
15:29 96.5 °F 60.0 °F 29.80 in NW 4.6 mph 4.6 mph 30 % 0.00 in
15:34 96.4 °F 59.0 °F 29.80 in NW 5.0 mph 5.0 mph 29 % 0.00 in
15:39 96.3 °F 59.8 °F 29.80 in NW 3.5 mph 3.5 mph 30 % 0.00 in
15:44 96.3 °F 58.9 °F 29.80 in NW 2.3 mph 2.3 mph 29 % 0.00 in
15:49 96.5 °F 58.1 °F 29.80 in NW 2.3 mph 2.3 mph 28 % 0.00 in
15:54 96.6 °F 58.2 °F 29.80 in NW 2.3 mph 2.3 mph 28 % 0.00 in
15:59 96.7 °F 58.2 °F 29.80 in NW 2.0 mph 2.0 mph 28 % 0.00 in
16:04 97.0 °F 57.5 °F 29.79 in NW 4.0 mph 4.0 mph 27 % 0.00 in
16:09 97.4 °F 56.8 °F 29.79 in NW 3.5 mph 3.5 mph 26 % 0.00 in
16:14 97.7 °F 53.6 °F 29.79 in WNW 3.5 mph 3.5 mph 23 % 0.00 in
16:19 97.5 °F 53.5 °F 29.79 in NW 3.5 mph 3.5 mph 23 % 0.00 in
16:24 97.5 °F 52.3 °F 29.79 in NNE 3.5 mph 3.5 mph 22 % 0.00 in
16:29 97.5 °F 52.3 °F 29.79 in North 3.5 mph 3.5 mph 22 % 0.00 in
16:34 97.4 °F 54.6 °F 29.79 in ENE 3.5 mph 3.5 mph 24 % 0.00 in
16:39 97.4 °F 54.6 °F 29.79 in NNW 3.5 mph 3.5 mph 24 % 0.00 in
16:44 97.6 °F 54.7 °F 29.78 in WNW 2.3 mph 2.3 mph 24 % 0.00 in
16:49 97.7 °F 57.0 °F 29.78 in North 3.5 mph 3.5 mph 26 % 0.00 in
16:54 97.6 °F 55.9 °F 29.78 in WNW 3.5 mph 3.5 mph 25 % 0.00 in
16:59 97.6 °F 55.9 °F 29.78 in NNW 3.5 mph 3.5 mph 25 % 0.00 in
17:04 97.3 °F 55.6 °F 29.78 in NNW 3.5 mph 3.5 mph 25 % 0.00 in
17:09 97.3 °F 55.6 °F 29.78 in NW 2.3 mph 2.3 mph 25 % 0.00 in
17:10 97.4 °F 54.6 °F 29.78 in NW 4.0 mph 4.0 mph 24 % 0.00 in
17:15 97.4 °F 56.8 °F 29.78 in NW 2.3 mph 2.3 mph 26 % 0.00 in
17:20 97.4 °F 55.7 °F 29.78 in WNW 1.2 mph 1.2 mph 25 % 0.00 in
17:27 97.6 °F 58.0 °F 29.78 in NW 2.3 mph 2.3 mph 27 % 0.00 in
17:32 97.7 °F 54.8 °F 29.77 in NW 3.5 mph 3.5 mph 24 % 0.00 in
17:37 97.6 °F 54.7 °F 29.77 in NW 2.0 mph 2.0 mph 24 % 0.00 in
17:42 97.6 °F 56.9 °F 29.77 in WNW 3.5 mph 3.5 mph 26 % 0.00 in
17:47 97.8 °F 56.0 °F 29.77 in NW 3.5 mph 3.5 mph 25 % 0.00 in
17:52 97.7 °F 57.0 °F 29.77 in NW 1.2 mph 1.2 mph 26 % 0.00 in
17:57 97.8 °F 57.1 °F 29.77 in NW 2.3 mph 2.3 mph 26 % 0.00 in
18:02 97.8 °F 57.1 °F 29.77 in NW 3.5 mph 3.5 mph 26 % 0.00 in
18:07 97.2 °F 55.5 °F 29.78 in NW 3.5 mph 3.5 mph 25 % 0.00 in
18:12 97.0 °F 56.4 °F 29.78 in WNW 3.5 mph 3.5 mph 26 % 0.00 in
18:17 97.0 °F 56.4 °F 29.78 in WNW 4.6 mph 4.6 mph 26 % 0.00 in
18:22 96.9 °F 56.3 °F 29.78 in NW 3.5 mph 3.5 mph 26 % 0.00 in
18:27 96.6 °F 58.2 °F 29.78 in NW 3.5 mph 3.5 mph 28 % 0.00 in
18:28 96.6 °F 58.2 °F 29.78 in NW 2.3 mph 2.3 mph 28 % 0.00 in
18:33 96.7 °F 57.2 °F 29.78 in NW 3.5 mph 3.5 mph 27 % 0.00 in
18:38 96.6 °F 58.2 °F 29.78 in NNW 1.2 mph 1.2 mph 28 % 0.00 in
18:43 96.3 °F 57.9 °F 29.78 in NW 2.3 mph 2.3 mph 28 % 0.00 in
18:48 96.1 °F 58.7 °F 29.78 in NW 3.5 mph 3.5 mph 29 % 0.00 in
18:53 96.0 °F 58.6 °F 29.78 in North 2.3 mph 2.3 mph 29 % 0.00 in
18:58 95.5 °F 58.2 °F 29.78 in NW 3.5 mph 3.5 mph 29 % 0.00 in
19:03 95.1 °F 58.8 °F 29.78 in NW 2.3 mph 2.3 mph 30 % 0.00 in
19:08 94.9 °F 58.6 °F 29.78 in NW 2.3 mph 2.3 mph 30 % 0.00 in
19:13 94.8 °F 59.5 °F 29.78 in NW 2.3 mph 2.3 mph 31 % 0.00 in
19:22 93.8 °F 60.3 °F 29.78 in WNW 1.2 mph 1.2 mph 33 % 0.00 in
19:27 93.1 °F 58.9 °F 29.78 in West 1.2 mph 1.2 mph 32 % 0.00 in
19:32 92.5 °F 59.2 °F 29.79 in WNW 1.2 mph 1.2 mph 33 % 0.00 in
19:37 92.0 °F 58.8 °F 29.79 in NW 1.2 mph   33 % 0.00 in
19:42 91.5 °F 59.2 °F 29.79 in Calm   0.1 mph 34 % 0.00 in
19:47 91.1 °F 59.6 °F 29.79 in Calm     35 % 0.00 in
19:52 90.6 °F 60.0 °F 29.79 in Calm     36 % 0.00 in
19:57 90.2 °F 58.8 °F 29.79 in NNW 1.2 mph 1.2 mph 35 % 0.00 in
20:02 90.0 °F 59.5 °F 29.79 in NW 2.3 mph 2.3 mph 36 % 0.00 in
20:07 89.8 °F 59.3 °F 29.79 in NW 1.2 mph 1.2 mph 36 % 0.00 in
20:12 89.5 °F 59.0 °F 29.79 in Calm     36 % 0.00 in
20:17 89.3 °F 60.4 °F 29.79 in Calm     38 % 0.00 in
20:22 88.8 °F 59.9 °F 29.79 in Calm     38 % 0.00 in
20:27 88.1 °F 60.7 °F 29.79 in Calm     40 % 0.00 in
20:32 87.3 °F 61.4 °F 29.79 in Calm     42 % 0.00 in
20:33 87.1 °F 61.9 °F 29.79 in Calm     43 % 0.00 in
20:38 86.4 °F 63.8 °F 29.80 in Calm     47 % 0.00 in
20:43 85.6 °F 61.8 °F 29.80 in Calm     45 % 0.00 in
20:48 84.9 °F 63.0 °F 29.80 in Calm     48 % 0.00 in
20:53 84.4 °F 62.0 °F 29.80 in Calm     47 % 0.00 in
20:58 84.0 °F 62.2 °F 29.80 in Calm     48 % 0.00 in
21:04 83.6 °F 62.4 °F 29.80 in Calm     49 % 0.00 in
21:09 83.1 °F 63.1 °F 29.80 in Calm     51 % 0.00 in
21:14 82.6 °F 64.8 °F 29.80 in Calm     55 % 0.00 in
21:19 82.1 °F 64.3 °F 29.80 in Calm     55 % 0.00 in
21:24 81.5 °F 63.8 °F 29.81 in Calm     55 % 0.00 in
21:29 81.0 °F 64.3 °F 29.81 in Calm     57 % 0.00 in
21:34 80.7 °F 64.1 °F 29.81 in Calm     57 % 0.00 in
21:39 80.7 °F 63.5 °F 29.81 in Calm     56 % 0.00 in
21:44 80.8 °F 63.1 °F 29.82 in Calm     55 % 0.00 in
21:49 81.1 °F 62.9 °F 29.82 in Calm     54 % 0.00 in
21:54 81.1 °F 63.4 °F 29.82 in Calm     55 % 0.00 in
21:59 80.9 °F 64.7 °F 29.82 in NW 1.2 mph 1.2 mph 58 % 0.00 in
22:04 80.5 °F 62.3 °F 29.82 in Calm     54 % 0.00 in
22:09 80.2 °F 62.6 °F 29.82 in Calm     55 % 0.00 in
22:14 80.2 °F 63.6 °F 29.82 in Calm     57 % 0.00 in
22:19 79.9 °F 63.3 °F 29.82 in Calm     57 % 0.00 in
22:24 79.5 °F 63.9 °F 29.82 in Calm     59 % 0.00 in
22:29 79.0 °F 63.4 °F 29.82 in Calm     59 % 0.00 in
22:34 78.6 °F 64.0 °F 29.83 in Calm     61 % 0.00 in
22:39 78.2 °F 63.6 °F 29.83 in Calm     61 % 0.00 in
22:44 77.9 °F 63.8 °F 29.83 in Calm     62 % 0.00 in
22:49 77.6 °F 63.1 °F 29.83 in Calm     61 % 0.00 in
22:54 77.4 °F 62.9 °F 29.83 in Calm     61 % 0.00 in
22:59 77.2 °F 63.2 °F 29.83 in Calm     62 % 0.00 in
23:04 77.0 °F 63.4 °F 29.83 in Calm     63 % 0.00 in
23:09 76.6 °F 63.1 °F 29.84 in Calm     63 % 0.00 in
23:14 76.3 °F 63.2 °F 29.84 in Calm     64 % 0.00 in
23:16 76.3 °F 63.7 °F 29.84 in Calm     65 % 0.00 in
23:21 76.1 °F 63.5 °F 29.84 in Calm     65 % 0.00 in
23:26 75.9 °F 63.7 °F 29.84 in Calm     66 % 0.00 in
23:31 75.6 °F 63.9 °F 29.84 in Calm     67 % 0.00 in
23:36 75.3 °F 64.4 °F 29.84 in Calm     69 % 0.00 in
23:41 75.1 °F 64.6 °F 29.84 in Calm     70 % 0.00 in
23:46 74.9 °F 64.0 °F 29.84 in Calm     69 % 0.00 in
23:51 74.9 °F 63.6 °F 29.84 in Calm     68 % 0.00 in
23:56 74.6 °F 63.8 °F 29.84 in Calm     69 % 0.00 in
Park Place, Exeter, Tulare County, California, USA
Compliments of Weather Underground - 2.75 mb